PWSweather.com
Personal Weather Stations
Station Observations
KVAGLENALL
West Henrico, Glen Allen, VA 23060-6503

West HenricoGlen Allen, VA 23060-6503

Lat: 37.6554, Lon: -77.5693

Elevation: 273

Station Type: Davis Vantage Pro II

www.glenallenweather.com

High Low Average
Temperature 86.9°F30.5°C 70.9°F21.6°C 78.1°F25.6°C
Dew Point 77.5°F25.3°C 69.4°F20.8°C 73.5°F23.1°C
Winds 9.0 mph 14.5 kmh Calm Calm 3.0 mph SSW4.8 kmh SSW
Wind Gusts 13.1 mph21.1 kmh 2.0 mph3.2 kmh 6.0 mph9.7 kmh
Humidity 95% 72% 86%
Pressure 29.91 in1012.9 mb 29.71 in1006.1 mb -
Precipitation 0.00 in0.0 mm - -
Hour Temp Dew Point Humidity Winds Wind Gusts Pressure Precip Precip Rate Daily Precip Total
12:00 AM 72.8°F22.7°C 70.3°F21.3°C 92% 1.0 mph SW1.6 kmh SW 3.0 mph4.8 kmh 29.91 in1012.9 mb 0.00 in0.0 mm 0.00 in0.0 mm 0.00 in0.0 mm
01:00 AM 72.2°F22.3°C 70.0°F21.1°C 93% 1.0 mph SSW1.6 kmh SSW 4.0 mph6.4 kmh 29.89 in1012.2 mb 0.00 in0.0 mm 0.00 in0.0 mm 0.00 in0.0 mm
02:00 AM 72.0°F22.2°C 69.8°F21.0°C 93% 1.0 mph S1.6 kmh S 2.0 mph3.2 kmh 29.87 in1011.5 mb 0.00 in0.0 mm 0.00 in0.0 mm 0.00 in0.0 mm
03:00 AM 71.8°F22.1°C 69.9°F21.1°C 94% Calm Calm 2.0 mph3.2 kmh 29.86 in1011.2 mb 0.00 in0.0 mm 0.00 in0.0 mm 0.00 in0.0 mm
04:00 AM 71.2°F21.8°C 69.7°F20.9°C 95% 4.0 mph S6.4 kmh S 4.0 mph6.4 kmh 29.86 in1011.2 mb 0.00 in0.0 mm 0.00 in0.0 mm 0.00 in0.0 mm
05:00 AM 70.9°F21.6°C 69.4°F20.8°C 95% 1.0 mph SW1.6 kmh SW 3.0 mph4.8 kmh 29.84 in1010.5 mb 0.00 in0.0 mm 0.00 in0.0 mm 0.00 in0.0 mm
06:00 AM 71.7°F22.1°C 69.8°F21.0°C 94% Calm Calm 2.0 mph3.2 kmh 29.84 in1010.5 mb 0.00 in0.0 mm 0.00 in0.0 mm 0.00 in0.0 mm
07:00 AM 73.7°F23.2°C 71.2°F21.8°C 92% 2.0 mph SW3.2 kmh SW 5.1 mph8.2 kmh 29.85 in1010.8 mb 0.00 in0.0 mm 0.00 in0.0 mm 0.00 in0.0 mm
08:00 AM 75.2°F24.0°C 72.0°F22.2°C 90% 6.0 mph SSW9.7 kmh SSW 8.1 mph13.0 kmh 29.86 in1011.2 mb 0.00 in0.0 mm 0.00 in0.0 mm 0.00 in0.0 mm
09:00 AM 78.0°F25.6°C 73.5°F23.1°C 86% 3.0 mph SSW4.8 kmh SSW 4.0 mph6.4 kmh 29.86 in1011.2 mb 0.00 in0.0 mm 0.00 in0.0 mm 0.00 in0.0 mm
10:00 AM 80.4°F26.9°C 73.7°F23.2°C 80% 3.0 mph S4.8 kmh S 7.1 mph11.4 kmh 29.85 in1010.8 mb 0.00 in0.0 mm 0.00 in0.0 mm 0.00 in0.0 mm
11:00 AM 82.3°F27.9°C 74.8°F23.8°C 78% 8.0 mph SW12.9 kmh SW 8.1 mph13.0 kmh 29.83 in1010.2 mb 0.00 in0.0 mm 0.00 in0.0 mm 0.00 in0.0 mm
12:00 PM 85.5°F29.7°C 77.5°F25.3°C 77% 9.0 mph SSW14.5 kmh SSW 9.1 mph14.6 kmh 29.81 in1009.5 mb 0.00 in0.0 mm 0.00 in0.0 mm 0.00 in0.0 mm
01:00 PM 85.4°F29.7°C 77.0°F25.0°C 76% 1.0 mph SW1.6 kmh SW 6.1 mph9.8 kmh 29.78 in1008.5 mb 0.00 in0.0 mm 0.00 in0.0 mm 0.00 in0.0 mm
01:15 PM 85.7°F29.8°C 76.9°F24.9°C 75% 8.0 mph S12.9 kmh S 8.1 mph13.0 kmh 29.77 in1008.1 mb 0.00 in0.0 mm 0.00 in0.0 mm 0.00 in0.0 mm
02:00 PM 86.0°F30.0°C 76.8°F24.9°C 74% 4.0 mph SSW6.4 kmh SSW 10.1 mph16.3 kmh 29.76 in1007.8 mb 0.00 in0.0 mm 0.00 in0.0 mm 0.00 in0.0 mm
03:00 PM 86.9°F30.5°C 76.8°F24.9°C 72% 6.0 mph S9.7 kmh S 9.1 mph14.6 kmh 29.74 in1007.1 mb 0.00 in0.0 mm 0.00 in0.0 mm 0.00 in0.0 mm
04:00 PM 80.5°F26.9°C 74.9°F23.8°C 83% 2.0 mph SSW3.2 kmh SSW 10.1 mph16.3 kmh 29.74 in1007.1 mb 0.01 in0.3 mm 0.00 in0.0 mm 0.01 in0.3 mm
05:00 PM 81.6°F27.6°C 76.0°F24.4°C 83% 9.0 mph S14.5 kmh S 13.1 mph21.1 kmh 29.72 in1006.4 mb 0.02 in0.5 mm 0.00 in0.0 mm 0.02 in0.5 mm
06:00 PM 80.6°F27.0°C 76.0°F24.4°C 86% 3.0 mph S4.8 kmh S 4.0 mph6.4 kmh 29.71 in1006.1 mb 0.00 in0.0 mm 0.00 in0.0 mm 0.02 in0.5 mm
07:00 PM 79.8°F26.6°C 75.2°F24.0°C 86% 1.0 mph SW1.6 kmh SW 3.0 mph4.8 kmh 29.72 in1006.4 mb 0.00 in0.0 mm 0.00 in0.0 mm 0.02 in0.5 mm
08:00 PM 78.7°F25.9°C 74.8°F23.8°C 88% 1.0 mph S1.6 kmh S 4.0 mph6.4 kmh 29.71 in1006.1 mb 0.00 in0.0 mm 0.00 in0.0 mm 0.02 in0.5 mm
09:00 PM 77.6°F25.3°C 74.1°F23.4°C 89% 4.0 mph S6.4 kmh S 9.1 mph14.6 kmh 29.72 in1006.4 mb 0.00 in0.0 mm 0.00 in0.0 mm 0.02 in0.5 mm
10:00 PM 76.5°F24.7°C 73.7°F23.2°C 91% 3.0 mph S4.8 kmh S 7.1 mph11.4 kmh 29.72 in1006.4 mb 0.00 in0.0 mm 0.00 in0.0 mm 0.02 in0.5 mm
11:00 PM 75.7°F24.3°C 73.2°F22.9°C 92% 3.0 mph S4.8 kmh S 4.0 mph6.4 kmh 29.71 in1006.1 mb 0.00 in0.0 mm 0.00 in0.0 mm 0.02 in0.5 mm